sensor_id;sensor_type;location;lat;lon;timestamp;pressure;altitude;pressure_sealevel;temperature;humidity
10115;BME280;5097;43.260;27.812;2023-02-17T00:00:03;100983.66;;;2.57;68.72
10115;BME280;5097;43.260;27.812;2023-02-17T00:02:47;100984.50;;;2.65;69.14
10115;BME280;5097;43.260;27.812;2023-02-17T00:05:32;100962.00;;;2.46;69.35
10115;BME280;5097;43.260;27.812;2023-02-17T00:08:16;100973.19;;;2.65;69.11
10115;BME280;5097;43.260;27.812;2023-02-17T00:11:00;100987.88;;;2.81;68.37
10115;BME280;5097;43.260;27.812;2023-02-17T00:13:44;100956.72;;;2.57;69.36
10115;BME280;5097;43.260;27.812;2023-02-17T00:16:28;100981.03;;;2.63;69.13
10115;BME280;5097;43.260;27.812;2023-02-17T00:19:12;100989.78;;;2.53;69.73
10115;BME280;5097;43.260;27.812;2023-02-17T00:22:09;100945.66;;;2.17;70.03
10115;BME280;5097;43.260;27.812;2023-02-17T00:24:53;100959.53;;;2.26;70.40
10115;BME280;5097;43.260;27.812;2023-02-17T00:27:37;100964.72;;;2.32;70.46
10115;BME280;5097;43.260;27.812;2023-02-17T00:30:21;100965.59;;;2.26;71.32
10115;BME280;5097;43.260;27.812;2023-02-17T00:33:07;100969.91;;;2.35;70.22
10115;BME280;5097;43.260;27.812;2023-02-17T00:35:51;100959.56;;;2.16;70.93
10115;BME280;5097;43.260;27.812;2023-02-17T00:38:36;100951.00;;;1.96;71.66
10115;BME280;5097;43.260;27.812;2023-02-17T00:41:20;100930.97;;;1.99;71.90
10115;BME280;5097;43.260;27.812;2023-02-17T00:44:04;100952.63;;;2.15;72.00
10115;BME280;5097;43.260;27.812;2023-02-17T00:46:48;100925.75;;;1.99;71.54
10115;BME280;5097;43.260;27.812;2023-02-17T00:49:34;100945.59;;;2.28;71.66
10115;BME280;5097;43.260;27.812;2023-02-17T00:52:18;100944.75;;;2.26;71.90
10115;BME280;5097;43.260;27.812;2023-02-17T00:55:04;100935.06;;;2.47;71.12
10115;BME280;5097;43.260;27.812;2023-02-17T00:57:48;100932.44;;;2.50;70.53
10115;BME280;5097;43.260;27.812;2023-02-17T01:00:32;100932.53;;;2.38;71.23
10115;BME280;5097;43.260;27.812;2023-02-17T01:03:17;100929.03;;;2.39;70.90
10115;BME280;5097;43.260;27.812;2023-02-17T01:06:06;100922.13;;;2.31;71.70
10115;BME280;5097;43.260;27.812;2023-02-17T01:08:50;100909.13;;;2.22;71.87
10115;BME280;5097;43.260;27.812;2023-02-17T01:11:36;100909.16;;;2.21;71.95
10115;BME280;5097;43.260;27.812;2023-02-17T01:14:20;100903.06;;;2.17;72.07
10115;BME280;5097;43.260;27.812;2023-02-17T01:17:04;100913.59;;;2.05;71.85
10115;BME280;5097;43.260;27.812;2023-02-17T01:19:48;100907.50;;;2.06;71.50
10115;BME280;5097;43.260;27.812;2023-02-17T01:22:32;100906.63;;;2.04;72.54
10115;BME280;5097;43.260;27.812;2023-02-17T01:25:16;100899.66;;;2.13;72.97
10115;BME280;5097;43.260;27.812;2023-02-17T01:28:01;100889.22;;;2.13;72.59
10115;BME280;5097;43.260;27.812;2023-02-17T01:30:46;100855.44;;;1.96;72.20
10115;BME280;5097;43.260;27.812;2023-02-17T01:33:30;100889.28;;;2.03;72.63
10115;BME280;5097;43.260;27.812;2023-02-17T01:36:17;100886.69;;;1.96;73.36
10115;BME280;5097;43.260;27.812;2023-02-17T01:39:01;100884.00;;;2.09;72.70
10115;BME280;5097;43.260;27.812;2023-02-17T01:41:44;100883.19;;;2.05;72.58
10115;BME280;5097;43.260;27.812;2023-02-17T01:44:31;100870.97;;;2.13;72.57
10115;BME280;5097;43.260;27.812;2023-02-17T01:47:15;100869.25;;;2.11;72.29
10115;BME280;5097;43.260;27.812;2023-02-17T01:49:59;100877.84;;;2.25;72.30
10115;BME280;5097;43.260;27.812;2023-02-17T01:52:45;100847.63;;;1.93;72.10
10115;BME280;5097;43.260;27.812;2023-02-17T01:55:31;100875.34;;;2.10;72.51
10115;BME280;5097;43.260;27.812;2023-02-17T01:58:22;100878.84;;;1.99;72.02
10115;BME280;5097;43.260;27.812;2023-02-17T02:01:08;100885.00;;;1.91;72.83
10115;BME280;5097;43.260;27.812;2023-02-17T02:03:53;100831.25;;;1.71;72.85
10115;BME280;5097;43.260;27.812;2023-02-17T02:06:37;100864.13;;;1.94;73.39
10115;BME280;5097;43.260;27.812;2023-02-17T02:09:27;100864.16;;;1.89;73.01
10115;BME280;5097;43.260;27.812;2023-02-17T02:12:20;100864.03;;;2.06;72.64
10115;BME280;5097;43.260;27.812;2023-02-17T02:15:07;100856.34;;;1.89;72.56
10115;BME280;5097;43.260;27.812;2023-02-17T02:21:27;100840.69;;;1.92;73.45
10115;BME280;5097;43.260;27.812;2023-02-17T02:24:22;100847.56;;;2.06;72.81
10115;BME280;5097;43.260;27.812;2023-02-17T02:27:33;100845.69;;;2.23;72.41
10115;BME280;5097;43.260;27.812;2023-02-17T02:30:34;100847.53;;;2.12;72.05
10115;BME280;5097;43.260;27.812;2023-02-17T02:33:32;100839.84;;;1.87;72.58
10115;BME280;5097;43.260;27.812;2023-02-17T02:36:18;100825.19;;;1.71;73.36
10115;BME280;5097;43.260;27.812;2023-02-17T02:39:09;100838.25;;;1.60;73.92
10115;BME280;5097;43.260;27.812;2023-02-17T02:41:56;100845.19;;;1.64;74.53
10115;BME280;5097;43.260;27.812;2023-02-17T02:44:41;100837.38;;;1.62;73.87
10115;BME280;5097;43.260;27.812;2023-02-17T02:47:41;100850.34;;;1.75;73.55
10115;BME280;5097;43.260;27.812;2023-02-17T02:50:39;100801.06;;;1.31;74.48
10115;BME280;5097;43.260;27.812;2023-02-17T02:53:48;100845.16;;;1.72;73.55
10115;BME280;5097;43.260;27.812;2023-02-17T02:56:48;100852.16;;;1.57;74.16
10115;BME280;5097;43.260;27.812;2023-02-17T02:59:49;100821.03;;;1.34;74.15
10115;BME280;5097;43.260;27.812;2023-02-17T03:02:37;100856.47;;;1.67;73.76
10115;BME280;5097;43.260;27.812;2023-02-17T03:05:32;100840.09;;;1.30;74.98
10115;BME280;5097;43.260;27.812;2023-02-17T03:08:21;100852.19;;;1.48;75.41
10115;BME280;5097;43.260;27.812;2023-02-17T03:11:07;100838.25;;;1.61;74.62
10115;BME280;5097;43.260;27.812;2023-02-17T03:13:51;100862.50;;;1.76;74.10
10115;BME280;5097;43.260;27.812;2023-02-17T03:16:37;100814.84;;;1.58;73.67
10115;BME280;5097;43.260;27.812;2023-02-17T03:19:22;100851.16;;;1.83;73.50
10115;BME280;5097;43.260;27.812;2023-02-17T03:22:15;100858.97;;;1.88;73.89
10115;BME280;5097;43.260;27.812;2023-02-17T03:25:03;100858.03;;;1.96;72.99
10115;BME280;5097;43.260;27.812;2023-02-17T03:27:47;100852.97;;;1.72;73.33
10115;BME280;5097;43.260;27.812;2023-02-17T03:30:31;100852.97;;;1.68;72.82
10115;BME280;5097;43.260;27.812;2023-02-17T03:33:14;100850.44;;;1.53;74.29
10115;BME280;5097;43.260;27.812;2023-02-17T03:35:58;100850.41;;;1.62;73.11
10115;BME280;5097;43.260;27.812;2023-02-17T03:38:44;100839.97;;;1.59;73.45
10115;BME280;5097;43.260;27.812;2023-02-17T03:41:27;100837.38;;;1.62;73.29
10115;BME280;5097;43.260;27.812;2023-02-17T03:44:11;100806.25;;;1.41;73.47
10115;BME280;5097;43.260;27.812;2023-02-17T03:46:55;100852.94;;;1.81;73.01
10115;BME280;5097;43.260;27.812;2023-02-17T03:49:39;100858.19;;;1.68;73.16
10115;BME280;5097;43.260;27.812;2023-02-17T03:52:22;100852.91;;;1.84;72.77
10115;BME280;5097;43.260;27.812;2023-02-17T03:55:08;100857.28;;;1.77;72.93
10115;BME280;5097;43.260;27.812;2023-02-17T03:57:53;100842.50;;;1.79;72.70
10115;BME280;5097;43.260;27.812;2023-02-17T04:00:37;100837.41;;;1.56;72.93
10115;BME280;5097;43.260;27.812;2023-02-17T04:03:21;100842.63;;;1.61;73.44
10115;BME280;5097;43.260;27.812;2023-02-17T04:06:05;100837.22;;;1.90;72.96
10115;BME280;5097;43.260;27.812;2023-02-17T04:08:50;100830.31;;;1.84;72.32
10115;BME280;5097;43.260;27.812;2023-02-17T04:11:35;100820.03;;;1.55;72.96
10115;BME280;5097;43.260;27.812;2023-02-17T04:14:19;100832.22;;;1.50;73.53
10115;BME280;5097;43.260;27.812;2023-02-17T04:17:03;100841.69;;;1.63;73.37
10115;BME280;5097;43.260;27.812;2023-02-17T04:19:46;100828.66;;;1.70;73.24
10115;BME280;5097;43.260;27.812;2023-02-17T04:22:30;100815.84;;;1.26;73.58
10115;BME280;5097;43.260;27.812;2023-02-17T04:25:14;100795.97;;;1.04;74.85
10115;BME280;5097;43.260;27.812;2023-02-17T04:27:59;100795.84;;;1.36;73.98
10115;BME280;5097;43.260;27.812;2023-02-17T04:30:43;100823.53;;;1.51;73.86
10115;BME280;5097;43.260;27.812;2023-02-17T04:33:27;100813.06;;;1.60;73.29
10115;BME280;5097;43.260;27.812;2023-02-17T04:36:12;100819.88;;;1.89;72.70
10115;BME280;5097;43.260;27.812;2023-02-17T04:38:56;100823.38;;;1.85;72.74
10115;BME280;5097;43.260;27.812;2023-02-17T04:41:40;100803.53;;;1.58;72.47
10115;BME280;5097;43.260;27.812;2023-02-17T04:44:25;100834.63;;;1.92;72.35
10115;BME280;5097;43.260;27.812;2023-02-17T04:47:09;100827.69;;;1.86;72.02
10115;BME280;5097;43.260;27.812;2023-02-17T04:49:53;100839.00;;;1.87;72.36
10115;BME280;5097;43.260;27.812;2023-02-17T04:52:37;100847.56;;;2.06;72.08
10115;BME280;5097;43.260;27.812;2023-02-17T04:55:21;100845.97;;;1.81;72.25
10115;BME280;5097;43.260;27.812;2023-02-17T04:58:05;100818.31;;;1.51;72.42
10115;BME280;5097;43.260;27.812;2023-02-17T05:00:50;100838.09;;;1.92;72.27
10115;BME280;5097;43.260;27.812;2023-02-17T05:03:34;100856.13;;;2.28;71.25
10115;BME280;5097;43.260;27.812;2023-02-17T05:06:18;100848.13;;;2.46;70.56
10115;BME280;5097;43.260;27.812;2023-02-17T05:09:02;100849.13;;;2.28;69.97
10115;BME280;5097;43.260;27.812;2023-02-17T05:11:45;100853.00;;;1.65;72.52
10115;BME280;5097;43.260;27.812;2023-02-17T05:14:29;100857.28;;;1.71;72.34
10115;BME280;5097;43.260;27.812;2023-02-17T05:17:14;100851.31;;;1.52;73.69
10115;BME280;5097;43.260;27.812;2023-02-17T05:19:58;100865.97;;;1.76;72.80
10115;BME280;5097;43.260;27.812;2023-02-17T05:22:44;100823.47;;;1.66;72.77
10115;BME280;5097;43.260;27.812;2023-02-17T05:25:28;100870.16;;;2.07;71.90
10115;BME280;5097;43.260;27.812;2023-02-17T05:28:12;100869.97;;;2.31;71.70
10115;BME280;5097;43.260;27.812;2023-02-17T05:30:56;100831.94;;;2.03;71.10
10115;BME280;5097;43.260;27.812;2023-02-17T05:33:41;100823.38;;;1.82;71.77
10115;BME280;5097;43.260;27.812;2023-02-17T05:36:25;100879.41;;;2.49;70.87
10115;BME280;5097;43.260;27.812;2023-02-17T05:39:08;100876.81;;;2.48;70.57
10115;BME280;5097;43.260;27.812;2023-02-17T05:41:52;100863.78;;;2.48;70.56
10115;BME280;5097;43.260;27.812;2023-02-17T05:44:37;100842.03;;;2.47;70.19
10115;BME280;5097;43.260;27.812;2023-02-17T05:47:22;100879.94;;;2.90;69.97
10115;BME280;5097;43.260;27.812;2023-02-17T05:50:10;100861.44;;;3.15;68.99
10115;BME280;5097;43.260;27.812;2023-02-17T05:52:54;100873.16;;;3.53;68.15
10115;BME280;5097;43.260;27.812;2023-02-17T05:55:38;100845.28;;;3.55;67.43
10115;BME280;5097;43.260;27.812;2023-02-17T05:58:22;100880.44;;;3.96;66.40
10115;BME280;5097;43.260;27.812;2023-02-17T06:01:07;100868.09;;;4.08;66.31
10115;BME280;5097;43.260;27.812;2023-02-17T06:03:51;100876.16;;;4.53;65.68
10115;BME280;5097;43.260;27.812;2023-02-17T06:06:36;100861.38;;;4.49;65.36
10115;BME280;5097;43.260;27.812;2023-02-17T06:09:20;100873.34;;;4.64;65.52
10115;BME280;5097;43.260;27.812;2023-02-17T06:12:04;100865.97;;;4.34;66.76
10115;BME280;5097;43.260;27.812;2023-02-17T06:14:48;100875.00;;;4.69;66.77
10115;BME280;5097;43.260;27.812;2023-02-17T06:17:32;100870.56;;;4.75;66.28
10115;BME280;5097;43.260;27.812;2023-02-17T06:20:16;100875.63;;;4.84;66.59
10115;BME280;5097;43.260;27.812;2023-02-17T06:23:01;100876.91;;;5.10;65.55
10115;BME280;5097;43.260;27.812;2023-02-17T06:25:45;100870.09;;;5.46;64.94
10115;BME280;5097;43.260;27.812;2023-02-17T06:28:29;100869.88;;;5.57;64.21
10115;BME280;5097;43.260;27.812;2023-02-17T06:31:16;100877.31;;;5.79;63.98
10115;BME280;5097;43.260;27.812;2023-02-17T06:34:00;100869.03;;;5.99;63.88
10115;BME280;5097;43.260;27.812;2023-02-17T06:36:47;100875.63;;;6.17;63.47
10115;BME280;5097;43.260;27.812;2023-02-17T06:39:33;100881.56;;;6.25;62.29
10115;BME280;5097;43.260;27.812;2023-02-17T06:42:16;100883.19;;;6.29;62.75
10115;BME280;5097;43.260;27.812;2023-02-17T06:45:01;100884.63;;;6.05;63.25
10115;BME280;5097;43.260;27.812;2023-02-17T06:47:47;100885.06;;;6.24;62.59
10115;BME280;5097;43.260;27.812;2023-02-17T06:50:31;100882.84;;;6.45;62.03
10115;BME280;5097;43.260;27.812;2023-02-17T06:53:15;100885.31;;;6.87;60.94
10115;BME280;5097;43.260;27.812;2023-02-17T06:56:00;100872.72;;;7.00;58.52
10115;BME280;5097;43.260;27.812;2023-02-17T06:58:44;100879.56;;;7.05;57.93
10115;BME280;5097;43.260;27.812;2023-02-17T07:01:28;100877.75;;;7.41;56.82
10115;BME280;5097;43.260;27.812;2023-02-17T07:04:12;100886.91;;;6.58;58.23
10115;BME280;5097;43.260;27.812;2023-02-17T07:06:56;100899.19;;;6.92;57.20
10115;BME280;5097;43.260;27.812;2023-02-17T07:09:40;100891.28;;;7.27;57.34
10115;BME280;5097;43.260;27.812;2023-02-17T07:12:26;100858.19;;;7.51;56.35
10115;BME280;5097;43.260;27.812;2023-02-17T07:15:10;100788.19;;;7.17;54.95
10115;BME280;5097;43.260;27.812;2023-02-17T07:17:54;100899.28;;;7.85;54.98
10115;BME280;5097;43.260;27.812;2023-02-17T07:20:38;100891.00;;;7.37;56.64
10115;BME280;5097;43.260;27.812;2023-02-17T07:23:22;100887.19;;;7.79;55.13
10115;BME280;5097;43.260;27.812;2023-02-17T07:26:07;100872.41;;;8.03;53.78
10115;BME280;5097;43.260;27.812;2023-02-17T07:28:53;100895.97;;;8.36;54.18
10115;BME280;5097;43.260;27.812;2023-02-17T07:31:37;100889.69;;;8.69;53.25
10115;BME280;5097;43.260;27.812;2023-02-17T07:34:21;100862.44;;;8.70;52.50
10115;BME280;5097;43.260;27.812;2023-02-17T07:37:05;100893.59;;;8.84;52.52
10115;BME280;5097;43.260;27.812;2023-02-17T07:39:49;100888.72;;;8.98;53.04
10115;BME280;5097;43.260;27.812;2023-02-17T07:42:33;100893.88;;;9.01;52.74
10115;BME280;5097;43.260;27.812;2023-02-17T07:45:19;100895.41;;;9.09;51.69
10115;BME280;5097;43.260;27.812;2023-02-17T07:48:03;100908.53;;;8.83;52.08
10115;BME280;5097;43.260;27.812;2023-02-17T07:50:47;100902.56;;;8.51;53.42
10115;BME280;5097;43.260;27.812;2023-02-17T07:53:31;100908.72;;;8.79;53.19
10115;BME280;5097;43.260;27.812;2023-02-17T07:56:17;100912.78;;;9.39;52.46
10115;BME280;5097;43.260;27.812;2023-02-17T07:59:01;100910.94;;;8.91;52.72
10115;BME280;5097;43.260;27.812;2023-02-17T08:01:46;100918.38;;;9.55;50.83
10115;BME280;5097;43.260;27.812;2023-02-17T08:04:31;100923.06;;;9.71;51.37
10115;BME280;5097;43.260;27.812;2023-02-17T08:07:17;100911.06;;;9.38;50.86
10115;BME280;5097;43.260;27.812;2023-02-17T08:10:02;100909.56;;;9.31;51.57
10115;BME280;5097;43.260;27.812;2023-02-17T08:13:04;100901.06;;;9.23;51.63
10115;BME280;5097;43.260;27.812;2023-02-17T08:16:03;100890.00;;;9.12;51.58
10115;BME280;5097;43.260;27.812;2023-02-17T08:18:49;100910.78;;;9.21;51.69
10115;BME280;5097;43.260;27.812;2023-02-17T08:21:33;100896.19;;;9.11;50.91
10115;BME280;5097;43.260;27.812;2023-02-17T08:24:17;100912.25;;;9.30;53.55
10115;BME280;5097;43.260;27.812;2023-02-17T08:27:02;100879.72;;;9.29;52.84
10115;BME280;5097;43.260;27.812;2023-02-17T08:29:48;100919.50;;;9.72;51.67
10115;BME280;5097;43.260;27.812;2023-02-17T08:32:32;100907.09;;;9.99;49.97
10115;BME280;5097;43.260;27.812;2023-02-17T08:35:17;100918.97;;;9.87;49.47
10115;BME280;5097;43.260;27.812;2023-02-17T08:38:04;100916.69;;;10.00;49.59
10115;BME280;5097;43.260;27.812;2023-02-17T08:40:48;100923.34;;;10.34;48.97
10115;BME280;5097;43.260;27.812;2023-02-17T08:43:32;100931.97;;;10.16;49.30
10115;BME280;5097;43.260;27.812;2023-02-17T08:46:17;100918.28;;;10.28;49.49
10115;BME280;5097;43.260;27.812;2023-02-17T08:49:02;100928.06;;;10.02;49.88
10115;BME280;5097;43.260;27.812;2023-02-17T08:51:48;100894.69;;;9.78;48.89
10115;BME280;5097;43.260;27.812;2023-02-17T08:54:32;100923.25;;;9.90;49.16
10115;BME280;5097;43.260;27.812;2023-02-17T08:57:17;100893.63;;;9.82;49.21
10115;BME280;5097;43.260;27.812;2023-02-17T09:00:05;100922.38;;;10.13;49.20
10115;BME280;5097;43.260;27.812;2023-02-17T09:02:50;100918.75;;;10.16;49.03
10115;BME280;5097;43.260;27.812;2023-02-17T09:05:34;100875.75;;;9.90;49.26
10115;BME280;5097;43.260;27.812;2023-02-17T09:08:20;100910.84;;;10.16;49.25
10115;BME280;5097;43.260;27.812;2023-02-17T09:11:05;100921.88;;;10.49;48.75
10115;BME280;5097;43.260;27.812;2023-02-17T09:13:50;100904.91;;;10.55;48.59
10115;BME280;5097;43.260;27.812;2023-02-17T09:16:35;100913.00;;;10.95;47.55
10115;BME280;5097;43.260;27.812;2023-02-17T09:19:22;100906.56;;;10.80;47.87
10115;BME280;5097;43.260;27.812;2023-02-17T09:22:07;100902.28;;;10.77;48.55
10115;BME280;5097;43.260;27.812;2023-02-17T09:25:00;100909.22;;;10.35;48.52
10115;BME280;5097;43.260;27.812;2023-02-17T09:27:44;100892.75;;;10.51;48.33
10115;BME280;5097;43.260;27.812;2023-02-17T09:30:29;100900.63;;;10.75;48.30
10115;BME280;5097;43.260;27.812;2023-02-17T09:33:12;100898.88;;;10.73;48.44
10115;BME280;5097;43.260;27.812;2023-02-17T09:35:56;100903.28;;;10.95;48.08
10115;BME280;5097;43.260;27.812;2023-02-17T09:38:41;100903.31;;;10.73;48.50
10115;BME280;5097;43.260;27.812;2023-02-17T09:41:32;100882.44;;;10.45;48.31
10115;BME280;5097;43.260;27.812;2023-02-17T09:44:20;100862.28;;;10.42;48.90
10115;BME280;5097;43.260;27.812;2023-02-17T09:47:09;100895.19;;;10.78;48.28
10115;BME280;5097;43.260;27.812;2023-02-17T09:49:59;100887.94;;;10.83;47.99
10115;BME280;5097;43.260;27.812;2023-02-17T09:52:50;100892.84;;;10.92;48.10
10115;BME280;5097;43.260;27.812;2023-02-17T09:55:41;100885.25;;;11.26;48.11
10115;BME280;5097;43.260;27.812;2023-02-17T09:58:32;100881.59;;;11.07;48.21
10115;BME280;5097;43.260;27.812;2023-02-17T10:01:19;100893.44;;;10.99;48.37
10115;BME280;5097;43.260;27.812;2023-02-17T10:04:07;100844.38;;;10.92;47.65
10115;BME280;5097;43.260;27.812;2023-02-17T10:06:58;100848.47;;;11.19;47.24
10115;BME280;5097;43.260;27.812;2023-02-17T10:09:47;100861.69;;;11.40;47.02
10115;BME280;5097;43.260;27.812;2023-02-17T10:12:36;100857.25;;;11.79;46.39
10115;BME280;5097;43.260;27.812;2023-02-17T10:15:28;100869.34;;;11.65;46.47
10115;BME280;5097;43.260;27.812;2023-02-17T10:18:18;100860.84;;;12.16;45.33
10115;BME280;5097;43.260;27.812;2023-02-17T10:21:07;100854.56;;;11.80;45.57
10115;BME280;5097;43.260;27.812;2023-02-17T10:23:54;100859.91;;;11.79;45.37
10115;BME280;5097;43.260;27.812;2023-02-17T10:26:47;100825.84;;;11.90;44.80
10115;BME280;5097;43.260;27.812;2023-02-17T10:29:41;100861.94;;;11.73;44.99
10115;BME280;5097;43.260;27.812;2023-02-17T10:32:39;100808.81;;;11.38;45.72
10115;BME280;5097;43.260;27.812;2023-02-17T10:35:36;100837.69;;;11.83;45.34
10115;BME280;5097;43.260;27.812;2023-02-17T10:38:35;100831.75;;;11.78;45.08
10115;BME280;5097;43.260;27.812;2023-02-17T10:41:26;100844.72;;;12.03;44.12
10115;BME280;5097;43.260;27.812;2023-02-17T10:44:18;100840.53;;;12.53;43.93
10115;BME280;5097;43.260;27.812;2023-02-17T10:47:04;100832.56;;;12.88;43.18
10115;BME280;5097;43.260;27.812;2023-02-17T10:49:52;100822.50;;;12.42;43.49
10115;BME280;5097;43.260;27.812;2023-02-17T10:52:38;100833.19;;;12.40;43.69
10115;BME280;5097;43.260;27.812;2023-02-17T10:55:30;100832.53;;;12.18;44.71
10115;BME280;5097;43.260;27.812;2023-02-17T10:58:21;100839.97;;;12.10;43.78
10115;BME280;5097;43.260;27.812;2023-02-17T11:01:07;100821.25;;;11.95;44.46
10115;BME280;5097;43.260;27.812;2023-02-17T11:03:59;100818.63;;;11.74;44.83
10115;BME280;5097;43.260;27.812;2023-02-17T11:06:48;100789.59;;;11.54;44.74
10115;BME280;5097;43.260;27.812;2023-02-17T11:09:33;100777.06;;;11.96;44.93
10115;BME280;5097;43.260;27.812;2023-02-17T11:12:22;100818.19;;;11.84;44.69
10115;BME280;5097;43.260;27.812;2023-02-17T11:15:16;100819.00;;;11.86;44.76
10115;BME280;5097;43.260;27.812;2023-02-17T11:18:08;100815.13;;;11.74;44.09
10115;BME280;5097;43.260;27.812;2023-02-17T11:21:00;100815.22;;;11.72;44.90
10115;BME280;5097;43.260;27.812;2023-02-17T11:23:51;100808.19;;;11.71;44.00
10115;BME280;5097;43.260;27.812;2023-02-17T11:26:36;100807.47;;;11.87;44.45
10115;BME280;5097;43.260;27.812;2023-02-17T11:29:22;100780.31;;;12.20;43.75
10115;BME280;5097;43.260;27.812;2023-02-17T11:32:07;100799.78;;;12.19;44.01
10115;BME280;5097;43.260;27.812;2023-02-17T11:34:56;100798.47;;;11.91;43.83
10115;BME280;5097;43.260;27.812;2023-02-17T11:37:41;100806.47;;;11.89;43.07
10115;BME280;5097;43.260;27.812;2023-02-17T11:40:27;100800.28;;;12.27;43.18
10115;BME280;5097;43.260;27.812;2023-02-17T11:43:15;100791.88;;;12.54;42.96
10115;BME280;5097;43.260;27.812;2023-02-17T11:46:10;100767.53;;;12.46;42.55
10115;BME280;5097;43.260;27.812;2023-02-17T11:49:32;100797.94;;;12.73;43.24
10115;BME280;5097;43.260;27.812;2023-02-17T11:52:34;100786.09;;;12.81;42.77
10115;BME280;5097;43.260;27.812;2023-02-17T11:55:25;100780.28;;;13.07;41.96
10115;BME280;5097;43.260;27.812;2023-02-17T11:58:26;100787.13;;;13.12;41.09
10115;BME280;5097;43.260;27.812;2023-02-17T12:01:21;100789.69;;;12.80;40.90
10115;BME280;5097;43.260;27.812;2023-02-17T12:04:24;100755.09;;;12.48;39.82
10115;BME280;5097;43.260;27.812;2023-02-17T12:07:35;100759.47;;;12.49;39.93
10115;BME280;5097;43.260;27.812;2023-02-17T12:10:29;100759.16;;;12.88;39.92
10115;BME280;5097;43.260;27.812;2023-02-17T12:13:28;100767.41;;;13.00;40.04
10115;BME280;5097;43.260;27.812;2023-02-17T12:16:22;100758.06;;;13.10;40.07
10115;BME280;5097;43.260;27.812;2023-02-17T12:19:30;100712.84;;;12.45;39.45
10115;BME280;5097;43.260;27.812;2023-02-17T12:22:23;100707.22;;;12.51;39.71
10115;BME280;5097;43.260;27.812;2023-02-17T12:25:21;100754.06;;;13.01;39.66
10115;BME280;5097;43.260;27.812;2023-02-17T12:28:21;100749.03;;;13.62;39.70
10115;BME280;5097;43.260;27.812;2023-02-17T12:31:20;100761.03;;;13.69;38.25
10115;BME280;5097;43.260;27.812;2023-02-17T12:34:14;100729.69;;;13.60;38.80
10115;BME280;5097;43.260;27.812;2023-02-17T12:37:05;100735.75;;;13.62;38.47
10115;BME280;5097;43.260;27.812;2023-02-17T12:39:52;100706.03;;;13.07;38.35
10115;BME280;5097;43.260;27.812;2023-02-17T12:42:41;100768.91;;;13.87;38.61
10115;BME280;5097;43.260;27.812;2023-02-17T12:45:34;100780.38;;;13.71;38.78
10115;BME280;5097;43.260;27.812;2023-02-17T12:48:27;100776.19;;;13.83;39.02
10115;BME280;5097;43.260;27.812;2023-02-17T12:51:20;100675.03;;;13.24;38.92
10115;BME280;5097;43.260;27.812;2023-02-17T12:54:11;100771.78;;;14.14;38.10
10115;BME280;5097;43.260;27.812;2023-02-17T12:57:05;100769.09;;;14.30;38.02
10115;BME280;5097;43.260;27.812;2023-02-17T12:59:55;100769.09;;;14.30;37.51
10115;BME280;5097;43.260;27.812;2023-02-17T13:02:41;100764.22;;;14.22;37.49
10115;BME280;5097;43.260;27.812;2023-02-17T13:05:30;100766.13;;;14.20;38.42
10115;BME280;5097;43.260;27.812;2023-02-17T13:08:20;100766.88;;;14.53;36.90
10115;BME280;5097;43.260;27.812;2023-02-17T13:11:09;100752.53;;;14.25;36.69
10115;BME280;5097;43.260;27.812;2023-02-17T13:13:54;100759.09;;;14.03;37.45
10115;BME280;5097;43.260;27.812;2023-02-17T13:16:42;100766.03;;;14.22;36.70
10115;BME280;5097;43.260;27.812;2023-02-17T13:19:27;100751.16;;;13.87;37.75
10115;BME280;5097;43.260;27.812;2023-02-17T13:22:21;100752.63;;;13.93;38.02
10115;BME280;5097;43.260;27.812;2023-02-17T13:25:06;100750.19;;;14.04;38.66
10115;BME280;5097;43.260;27.812;2023-02-17T13:27:54;100749.72;;;13.82;38.66
10115;BME280;5097;43.260;27.812;2023-02-17T13:30:40;100746.94;;;13.99;38.16
10115;BME280;5097;43.260;27.812;2023-02-17T13:33:29;100744.94;;;13.72;38.72
10115;BME280;5097;43.260;27.812;2023-02-17T13:36:20;100750.22;;;13.88;39.05
10115;BME280;5097;43.260;27.812;2023-02-17T13:39:30;100749.53;;;13.69;39.15
10115;BME280;5097;43.260;27.812;2023-02-17T13:42:37;100741.16;;;13.45;39.66
10115;BME280;5097;43.260;27.812;2023-02-17T13:45:24;100733.78;;;13.50;39.84
10115;BME280;5097;43.260;27.812;2023-02-17T13:48:20;100749.41;;;13.56;39.94
10115;BME280;5097;43.260;27.812;2023-02-17T13:51:06;100755.53;;;13.40;40.50
10115;BME280;5097;43.260;27.812;2023-02-17T13:53:51;100745.47;;;13.14;40.81
10115;BME280;5097;43.260;27.812;2023-02-17T13:56:38;100750.25;;;13.23;40.92
10115;BME280;5097;43.260;27.812;2023-02-17T13:59:25;100742.13;;;13.60;40.60
10115;BME280;5097;43.260;27.812;2023-02-17T14:02:17;100735.13;;;13.25;41.14
10115;BME280;5097;43.260;27.812;2023-02-17T14:05:19;100752.22;;;13.03;41.70
10115;BME280;5097;43.260;27.812;2023-02-17T14:08:06;100739.88;;;13.02;41.89
10115;BME280;5097;43.260;27.812;2023-02-17T14:10:50;100715.63;;;12.93;42.02
10115;BME280;5097;43.260;27.812;2023-02-17T14:13:37;100732.84;;;13.01;42.26
10115;BME280;5097;43.260;27.812;2023-02-17T14:16:27;100731.00;;;13.03;42.54
10115;BME280;5097;43.260;27.812;2023-02-17T14:19:14;100716.94;;;13.01;42.25
10115;BME280;5097;43.260;27.812;2023-02-17T14:22:01;100721.72;;;12.61;43.37
10115;BME280;5097;43.260;27.812;2023-02-17T14:24:57;100745.31;;;12.66;43.52
10115;BME280;5097;43.260;27.812;2023-02-17T14:27:42;100725.16;;;12.63;43.64
10115;BME280;5097;43.260;27.812;2023-02-17T14:30:30;100747.28;;;12.62;43.75
10115;BME280;5097;43.260;27.812;2023-02-17T14:33:20;100756.63;;;12.52;43.80
10115;BME280;5097;43.260;27.812;2023-02-17T14:36:06;100742.28;;;12.56;43.98
10115;BME280;5097;43.260;27.812;2023-02-17T14:38:54;100765.97;;;12.41;44.29
10115;BME280;5097;43.260;27.812;2023-02-17T14:41:38;100750.25;;;12.56;44.34
10115;BME280;5097;43.260;27.812;2023-02-17T14:44:22;100743.31;;;12.53;44.17